Afton, Wisconsin
Current Conditions -  °F | °C
As of 8:45 AM on Wednesday 26 Nov 2014 (Local Time) from KJVL Reporting Station
Haze Haze  
Wind Chill: 15°   Ceiling: 1000
Heat Index: 21°   Visibility: 3mi
Dew Point: 19°   Wind: 5mph
Humidity: 93%   Direction: 110°ESE
Pressure: 30.13"   Gusts: NA
Location:  42.6°N, 89.07°W
Report Text: KJVL 261445Z 11004KT 3SM BR OVC010 M06/M07 A3013
Loading
Personal Weather Stations






























Interactive Weather Map New forecast layout! Learn more

10-Day Weather Forecast

Advertisements
Track Severe Weather on mobile